Time;durP1;ratioP1;P1;durP2;ratioP2;P2;SDS_P1;SDS_P2;PMS_P1;PMS_P2;Temp;Humidity;BMP_temperature;BMP_pressure;BME280_temperature;BME280_humidity;BME280_pressure;Samples;Min_cycle;Max_cycle;Signal;HPM_P1;HPM_P2
2023/04/08 00:00:54;;;;;;;5.18;2.65;;;10.70;99.90;;;;;;4993359;28;20034;-80
2023/04/08 00:03:20;;;;;;;6.80;2.90;;;10.70;99.90;;;;;;4994144;28;20038;-80
2023/04/08 00:05:46;;;;;;;4.18;2.50;;;10.70;99.90;;;;;;4994383;28;20030;-81
2023/04/08 00:08:12;;;;;;;4.45;2.63;;;10.70;99.90;;;;;;4993315;28;20118;-82
2023/04/08 00:10:38;;;;;;;4.63;2.92;;;10.60;99.90;;;;;;4992761;28;20031;-82
2023/04/08 00:13:03;;;;;;;3.35;2.25;;;10.70;99.90;;;;;;4993203;28;20034;-82
2023/04/08 00:15:29;;;;;;;3.22;2.13;;;10.60;99.90;;;;;;4993566;28;20058;-81
2023/04/08 00:17:55;;;;;;;5.00;2.60;;;10.60;99.90;;;;;;4994456;28;20026;-82
2023/04/08 00:20:22;;;;;;;5.20;2.58;;;10.70;99.90;;;;;;4993270;28;20065;-82
2023/04/08 00:22:48;;;;;;;5.03;2.50;;;10.70;99.90;;;;;;4996381;28;20528;-82
2023/04/08 00:25:13;;;;;;;4.88;2.75;;;10.70;99.90;;;;;;4997764;28;20053;-82
2023/04/08 00:27:39;;;;;;;5.03;3.00;;;10.70;99.90;;;;;;4996106;28;20030;-81
2023/04/08 00:30:05;;;;;;;6.40;2.92;;;10.70;99.90;;;;;;4996561;28;20033;-80
2023/04/08 00:32:31;;;;;;;4.97;3.05;;;10.60;99.90;;;;;;4996860;28;20057;-81
2023/04/08 00:34:57;;;;;;;7.70;3.35;;;10.60;99.90;;;;;;4996511;28;20172;-81
2023/04/08 00:37:23;;;;;;;6.32;3.10;;;10.60;99.90;;;;;;4996233;28;20081;-78
2023/04/08 00:39:50;;;;;;;6.93;3.30;;;10.60;99.90;;;;;;4997435;28;20489;-81
2023/04/08 00:42:16;;;;;;;7.72;3.50;;;10.60;99.90;;;;;;4996007;28;20054;-81
2023/04/08 00:44:42;;;;;;;7.40;3.65;;;10.70;99.90;;;;;;4996939;28;20483;-79
2023/04/08 00:47:15;;;;;;;6.97;4.00;;;10.70;99.90;;;;;;4996055;28;20080;-80
2023/04/08 00:49:41;;;;;;;8.18;3.50;;;10.70;99.90;;;;;;4996741;28;20488;-80
2023/04/08 00:52:07;;;;;;;7.75;4.03;;;10.60;99.90;;;;;;4996935;28;20027;-81
2023/04/08 00:54:35;;;;;;;5.75;3.75;;;10.60;99.90;;;;;;4995283;28;20435;-80
2023/04/08 00:57:01;;;;;;;8.80;4.18;;;10.60;99.90;;;;;;4995970;28;20431;-80
2023/04/08 00:59:29;;;;;;;8.52;4.18;;;10.60;99.90;;;;;;4995289;28;20060;-80
2023/04/08 01:02:42;;;;;;;5.65;3.45;;;10.60;99.90;;;;;;4997137;28;20124;-80
2023/04/08 01:05:17;;;;;;;8.93;4.32;;;10.60;99.90;;;;;;5005010;28;20038;-80
2023/04/08 01:07:49;;;;;;;7.72;3.92;;;10.50;99.90;;;;;;4996397;28;20026;-79
2023/04/08 01:10:24;;;;;;;9.95;4.88;;;10.50;99.90;;;;;;4996803;28;20105;-80
2023/04/08 01:12:55;;;;;;;8.60;3.97;;;10.50;99.90;;;;;;4995517;28;20049;-79
2023/04/08 01:15:23;;;;;;;7.45;4.10;;;10.50;99.90;;;;;;4996871;28;20045;-80
2023/04/08 01:17:53;;;;;;;9.23;4.68;;;10.60;99.90;;;;;;4996119;28;20027;-80
2023/04/08 01:20:19;;;;;;;9.13;3.75;;;10.50;99.90;;;;;;4996697;28;20022;-80
2023/04/08 01:23:02;;;;;;;10.07;5.07;;;10.50;99.90;;;;;;4996136;28;20469;-80
2023/04/08 01:25:36;;;;;;;7.63;4.03;;;10.50;99.90;;;;;;4995107;28;20030;-79
2023/04/08 01:28:15;;;;;;;8.50;4.40;;;10.60;99.90;;;;;;4995256;28;20026;-80
2023/04/08 01:30:42;;;;;;;8.25;4.35;;;10.50;99.90;;;;;;4995512;28;20496;-80
2023/04/08 01:33:14;;;;;;;7.90;4.03;;;10.50;99.90;;;;;;4996042;28;20125;-80
2023/04/08 01:35:40;;;;;;;8.63;4.50;;;10.50;99.90;;;;;;4994765;28;20033;-79
2023/04/08 01:38:07;;;;;;;9.95;4.60;;;10.50;99.90;;;;;;4995191;28;20125;-80
2023/04/08 01:40:34;;;;;;;9.30;4.72;;;10.50;99.90;;;;;;4994372;28;20029;-80
2023/04/08 01:43:02;;;;;;;7.53;4.15;;;10.50;99.90;;;;;;4995348;28;20109;-80
2023/04/08 01:45:29;;;;;;;8.40;4.60;;;10.50;99.90;;;;;;4995752;28;20405;-79
2023/04/08 01:47:56;;;;;;;9.48;5.07;;;10.50;99.90;;;;;;4995123;28;20031;-80
2023/04/08 01:50:24;;;;;;;9.60;4.22;;;10.40;99.90;;;;;;4995112;28;20041;-79
2023/04/08 01:52:52;;;;;;;8.70;4.78;;;10.40;99.90;;;;;;4994421;28;20035;-79
2023/04/08 01:55:18;;;;;;;8.18;4.72;;;10.40;99.90;;;;;;4994839;28;20026;-79
2023/04/08 01:57:49;;;;;;;10.98;5.10;;;10.40;99.90;;;;;;4994197;28;20026;-79
2023/04/08 02:00:19;;;;;;;9.45;4.85;;;10.40;99.90;;;;;;4996012;28;20027;-79
2023/04/08 02:02:46;;;;;;;9.30;4.90;;;10.50;99.90;;;;;;4994363;28;20217;-79
2023/04/08 02:05:12;;;;;;;9.75;4.70;;;10.50;99.90;;;;;;4995739;28;20507;-80
2023/04/08 02:07:38;;;;;;;8.57;4.82;;;10.40;99.90;;;;;;4994384;28;20026;-80
2023/04/08 02:10:04;;;;;;;10.35;5.43;;;10.50;99.90;;;;;;4994920;28;20117;-81
2023/04/08 02:12:31;;;;;;;9.60;5.20;;;10.50;99.90;;;;;;4994150;28;20030;-80
2023/04/08 02:14:57;;;;;;;8.57;5.10;;;10.40;99.90;;;;;;4995632;28;20034;-80
2023/04/08 02:17:38;;;;;;;9.48;4.80;;;10.40;99.90;;;;;;4995613;28;20121;-82
2023/04/08 02:20:15;;;;;;;11.13;4.80;;;10.30;99.90;;;;;;4994787;28;20464;-81
2023/04/08 02:22:58;;;;;;;10.27;5.45;;;10.40;99.90;;;;;;4995043;28;20022;-82
2023/04/08 02:25:25;;;;;;;10.90;5.05;;;10.40;99.90;;;;;;4995562;28;20057;-81
2023/04/08 02:27:51;;;;;;;8.85;4.70;;;10.30;99.90;;;;;;4994173;28;20077;-81
2023/04/08 02:30:18;;;;;;;10.07;5.63;;;10.40;99.90;;;;;;4994797;28;20030;-81
2023/04/08 02:32:45;;;;;;;10.23;5.28;;;10.30;99.90;;;;;;4993662;28;20030;-81
2023/04/08 02:35:12;;;;;;;10.82;5.05;;;10.30;99.90;;;;;;4994613;28;20070;-81
2023/04/08 02:37:37;;;;;;;11.55;5.28;;;10.30;99.90;;;;;;4994826;28;20037;-81
2023/04/08 02:40:04;;;;;;;11.32;5.03;;;10.30;99.90;;;;;;4994278;28;20022;-81
2023/04/08 02:42:30;;;;;;;8.55;5.03;;;10.20;99.90;;;;;;4993720;28;20392;-81
2023/04/08 02:44:56;;;;;;;11.48;6.07;;;10.30;99.90;;;;;;4993499;28;20405;-81
2023/04/08 02:47:22;;;;;;;10.82;5.35;;;10.30;99.90;;;;;;4994188;28;20030;-82
2023/04/08 02:49:47;;;;;;;11.23;5.68;;;10.30;99.90;;;;;;4993481;28;20030;-81
2023/04/08 02:52:13;;;;;;;9.45;5.68;;;10.30;99.90;;;;;;4995152;28;20026;-81
2023/04/08 02:54:39;;;;;;;9.23;5.00;;;10.30;99.90;;;;;;4994565;28;20411;-81
2023/04/08 02:57:04;;;;;;;10.05;5.78;;;10.30;99.90;;;;;;4995134;28;20026;-81
2023/04/08 02:59:30;;;;;;;10.80;5.30;;;10.30;99.90;;;;;;4994626;28;20073;-81
2023/04/08 03:01:55;;;;;;;9.18;5.40;;;10.20;99.90;;;;;;4993234;28;20030;-81
2023/04/08 03:04:21;;;;;;;14.75;5.68;;;10.20;99.90;;;;;;4994891;28;20034;-81
2023/04/08 03:06:46;;;;;;;10.75;5.90;;;10.20;99.90;;;;;;4993352;28;20129;-81
2023/04/08 03:09:12;;;;;;;12.48;5.88;;;10.20;99.90;;;;;;4993742;28;20474;-81
2023/04/08 03:11:37;;;;;;;11.70;6.32;;;10.20;99.90;;;;;;4993956;28;20074;-81
2023/04/08 03:14:03;;;;;;;10.52;6.00;;;10.20;99.90;;;;;;4993169;28;20054;-80
2023/04/08 03:16:29;;;;;;;11.10;5.63;;;10.30;99.90;;;;;;4993343;28;20034;-81
2023/04/08 03:18:54;;;;;;;10.88;5.95;;;10.20;99.90;;;;;;4993088;28;20030;-81
2023/04/08 03:21:20;;;;;;;11.63;6.00;;;10.20;99.90;;;;;;4994556;28;20030;-81
2023/04/08 03:23:46;;;;;;;9.88;5.93;;;10.20;99.90;;;;;;4993086;28;20030;-81
2023/04/08 03:26:11;;;;;;;13.60;6.45;;;10.20;99.90;;;;;;4994320;28;20074;-80
2023/04/08 03:28:37;;;;;;;13.07;6.07;;;10.20;99.90;;;;;;4993001;28;20030;-80
2023/04/08 03:31:05;;;;;;;12.35;6.22;;;10.20;99.90;;;;;;4994376;28;20427;-81
2023/04/08 03:33:31;;;;;;;12.40;6.57;;;10.20;99.90;;;;;;4994235;28;20478;-81
2023/04/08 03:35:57;;;;;;;12.82;6.22;;;10.20;99.90;;;;;;4992998;28;20113;-81
2023/04/08 03:38:22;;;;;;;14.65;7.05;;;10.20;99.90;;;;;;4993738;28;20030;-81
2023/04/08 03:40:48;;;;;;;12.30;6.30;;;10.20;99.90;;;;;;4992823;28;20081;-81
2023/04/08 03:43:14;;;;;;;11.88;6.43;;;10.20;99.90;;;;;;4993009;28;20059;-81
2023/04/08 03:45:39;;;;;;;13.23;6.15;;;10.10;99.90;;;;;;4992661;28;20534;-81
2023/04/08 03:48:05;;;;;;;13.18;7.00;;;10.20;99.90;;;;;;4994145;28;20046;-81
2023/04/08 03:50:31;;;;;;;13.63;7.03;;;10.10;99.90;;;;;;4993374;28;20054;-81
2023/04/08 03:52:56;;;;;;;12.73;6.38;;;10.10;99.90;;;;;;4993823;28;20042;-82
2023/04/08 03:55:22;;;;;;;14.35;7.20;;;10.10;99.90;;;;;;4994289;28;20022;-81
2023/04/08 03:57:48;;;;;;;15.23;6.93;;;10.00;99.90;;;;;;4997820;28;20030;-81
2023/04/08 04:00:14;;;;;;;11.60;6.55;;;10.00;99.90;;;;;;4997180;28;20117;-81
2023/04/08 04:02:40;;;;;;;13.38;7.00;;;9.90;99.90;;;;;;4996636;28;20053;-81
2023/04/08 04:05:06;;;;;;;13.75;6.30;;;10.00;99.90;;;;;;4998209;28;20471;-81
2023/04/08 04:07:31;;;;;;;15.30;6.70;;;9.90;99.90;;;;;;4997998;28;20033;-81
2023/04/08 04:09:57;;;;;;;15.50;7.55;;;9.90;99.90;;;;;;4996289;28;20026;-81
2023/04/08 04:12:23;;;;;;;13.80;7.00;;;9.80;99.90;;;;;;4996695;28;20039;-81
2023/04/08 04:14:48;;;;;;;13.20;7.00;;;9.80;99.90;;;;;;4996072;28;20042;-80
2023/04/08 04:17:14;;;;;;;13.65;7.03;;;9.80;99.90;;;;;;4996718;28;20029;-81
2023/04/08 04:19:40;;;;;;;13.55;6.93;;;9.70;99.90;;;;;;4996078;28;20029;-80
2023/04/08 04:22:05;;;;;;;13.95;7.03;;;9.70;99.90;;;;;;4997776;28;20026;-80
2023/04/08 04:24:31;;;;;;;18.42;8.18;;;9.70;99.90;;;;;;4996605;28;20030;-80
2023/04/08 04:26:56;;;;;;;13.70;7.40;;;9.80;99.90;;;;;;4997110;28;20522;-80
2023/04/08 04:29:22;;;;;;;16.33;7.43;;;9.80;99.90;;;;;;4996472;28;20030;-80
2023/04/08 04:31:48;;;;;;;13.43;7.35;;;9.80;99.90;;;;;;4996756;28;20026;-80
2023/04/08 04:34:13;;;;;;;16.42;7.85;;;9.80;99.90;;;;;;4997379;28;20038;-80
2023/04/08 04:36:39;;;;;;;15.43;7.72;;;9.80;99.90;;;;;;4996163;28;20026;-82
2023/04/08 04:39:05;;;;;;;18.27;8.02;;;9.80;99.90;;;;;;4997382;28;20030;-79
2023/04/08 04:41:30;;;;;;;15.02;7.78;;;9.80;99.90;;;;;;4996252;28;20468;-79
2023/04/08 04:43:56;;;;;;;14.55;7.60;;;9.80;99.90;;;;;;4995647;28;20058;-80
2023/04/08 04:46:22;;;;;;;14.00;7.00;;;9.80;99.90;;;;;;4996391;28;20490;-79
2023/04/08 04:48:47;;;;;;;18.30;7.93;;;9.80;99.90;;;;;;4995522;28;20030;-79
2023/04/08 04:51:13;;;;;;;16.10;7.18;;;9.80;99.90;;;;;;4995985;28;20033;-79
2023/04/08 04:53:38;;;;;;;16.65;8.00;;;9.90;99.90;;;;;;4996448;28;20399;-78
2023/04/08 04:56:04;;;;;;;15.95;7.63;;;9.90;99.90;;;;;;4996891;28;20026;-79
2023/04/08 04:58:30;;;;;;;18.15;7.82;;;9.90;99.90;;;;;;4996912;28;20019;-79
2023/04/08 05:00:56;;;;;;;15.27;8.10;;;9.90;99.90;;;;;;4996506;28;20022;-78
2023/04/08 05:03:22;;;;;;;17.67;8.02;;;9.80;99.90;;;;;;4997069;28;20034;-79
2023/04/08 05:05:52;;;;;;;14.07;6.75;;;9.90;99.90;;;;;;4995590;28;20396;-80
2023/04/08 05:08:18;;;;;;;18.20;8.10;;;9.90;99.90;;;;;;4995122;28;20483;-81
2023/04/08 05:10:44;;;;;;;16.48;7.80;;;9.90;99.90;;;;;;4998035;28;20029;-80
2023/04/08 05:13:09;;;;;;;17.35;7.90;;;9.90;99.90;;;;;;5002744;28;20046;-80
2023/04/08 05:15:35;;;;;;;17.85;7.70;;;9.90;99.90;;;;;;4996884;28;20040;-80
2023/04/08 05:18:01;;;;;;;16.77;7.70;;;9.80;99.90;;;;;;4995164;28;20057;-80
2023/04/08 05:20:27;;;;;;;16.83;8.27;;;9.90;99.90;;;;;;4996377;28;20029;-80
2023/04/08 05:22:52;;;;;;;15.88;7.90;;;9.80;99.90;;;;;;4995237;28;20088;-80
2023/04/08 05:25:18;;;;;;;16.05;7.72;;;9.80;99.90;;;;;;4995675;28;20395;-80
2023/04/08 05:27:44;;;;;;;14.88;7.50;;;9.80;99.90;;;;;;4994929;28;20033;-79
2023/04/08 05:30:10;;;;;;;17.20;7.63;;;9.80;99.90;;;;;;4996758;28;20022;-80
2023/04/08 05:32:36;;;;;;;17.13;8.38;;;9.80;99.90;;;;;;4996179;28;20026;-80
2023/04/08 05:35:02;;;;;;;16.73;7.32;;;9.80;99.90;;;;;;4996016;28;20065;-79
2023/04/08 05:37:28;;;;;;;17.17;7.50;;;9.80;99.90;;;;;;4996146;28;20031;-80
2023/04/08 05:39:54;;;;;;;16.70;8.25;;;9.80;99.90;;;;;;4994908;28;20027;-80
2023/04/08 05:42:20;;;;;;;15.20;7.10;;;9.80;99.90;;;;;;4995082;28;20055;-79
2023/04/08 05:44:45;;;;;;;16.50;8.18;;;9.80;99.90;;;;;;4995874;28;20045;-79
2023/04/08 05:47:11;;;;;;;13.90;7.03;;;9.80;99.90;;;;;;4995019;28;20068;-80
2023/04/08 05:49:37;;;;;;;15.60;7.50;;;9.90;99.90;;;;;;4996343;28;20026;-80
2023/04/08 05:52:03;;;;;;;16.48;7.88;;;9.90;99.90;;;;;;4994752;28;20076;-80
2023/04/08 05:54:29;;;;;;;16.27;7.07;;;9.90;99.90;;;;;;4996118;28;20046;-81
2023/04/08 05:56:55;;;;;;;15.27;6.85;;;9.90;99.90;;;;;;4995635;28;20066;-80
2023/04/08 05:59:20;;;;;;;14.50;7.40;;;10.00;99.90;;;;;;4994978;28;20029;-80
2023/04/08 06:01:46;;;;;;;18.35;7.85;;;10.00;99.90;;;;;;4994558;28;20031;-80
2023/04/08 06:04:11;;;;;;;16.55;7.90;;;10.00;99.90;;;;;;5010018;28;20033;-81
2023/04/08 06:06:38;;;;;;;14.90;6.78;;;10.00;99.90;;;;;;5015589;28;20018;-79
2023/04/08 06:09:04;;;;;;;15.05;7.05;;;10.00;99.90;;;;;;5013719;28;20057;-79
2023/04/08 06:11:30;;;;;;;14.52;7.25;;;10.00;99.90;;;;;;5015418;28;20451;-79
2023/04/08 06:13:55;;;;;;;14.73;6.93;;;10.00;99.90;;;;;;5014573;28;20084;-79
2023/04/08 06:16:21;;;;;;;15.27;7.15;;;10.00;99.90;;;;;;5006267;28;20119;-81
2023/04/08 06:18:47;;;;;;;11.88;6.60;;;10.10;99.90;;;;;;4993331;28;20027;-81
2023/04/08 06:21:12;;;;;;;14.88;6.78;;;10.10;99.90;;;;;;4993861;28;20030;-81
2023/04/08 06:23:38;;;;;;;12.85;6.45;;;10.10;99.90;;;;;;4995342;28;20102;-82
2023/04/08 06:26:04;;;;;;;16.45;7.25;;;10.10;99.90;;;;;;4995051;28;20392;-81
2023/04/08 06:28:30;;;;;;;13.02;6.45;;;10.20;99.90;;;;;;4995495;28;20030;-81
2023/04/08 06:30:56;;;;;;;15.50;6.70;;;10.20;99.90;;;;;;4994784;28;20467;-81
2023/04/08 06:33:22;;;;;;;12.93;6.40;;;10.30;99.90;;;;;;4994374;28;20035;-81
2023/04/08 06:35:47;;;;;;;11.65;6.00;;;10.40;99.90;;;;;;4994081;28;20034;-81
2023/04/08 06:38:13;;;;;;;14.02;6.32;;;10.40;99.90;;;;;;4995459;28;20062;-81
2023/04/08 06:40:39;;;;;;;11.18;5.78;;;10.40;99.90;;;;;;4995300;28;20379;-81
2023/04/08 06:43:06;;;;;;;12.10;5.80;;;10.50;99.90;;;;;;4994600;28;20550;-81
2023/04/08 06:45:32;;;;;;;13.93;7.07;;;10.50;99.90;;;;;;4995170;28;20448;-81
2023/04/08 06:47:58;;;;;;;16.35;7.50;;;10.50;99.90;;;;;;4993584;28;20030;-82
2023/04/08 06:50:24;;;;;;;15.07;6.72;;;10.60;99.90;;;;;;4995034;28;20061;-82
2023/04/08 06:52:50;;;;;;;12.07;6.65;;;10.60;99.90;;;;;;4993632;28;20069;-82
2023/04/08 06:55:15;;;;;;;15.68;7.43;;;10.50;99.90;;;;;;4994976;28;20061;-79
2023/04/08 06:57:41;;;;;;;13.18;7.10;;;10.60;99.90;;;;;;4994941;28;20487;-81
2023/04/08 07:00:07;;;;;;;13.52;6.75;;;10.50;99.90;;;;;;4993437;28;20494;-80
2023/04/08 07:02:33;;;;;;;11.75;6.60;;;10.60;99.90;;;;;;4994838;28;20026;-80
2023/04/08 07:04:59;;;;;;;15.57;7.13;;;10.60;99.90;;;;;;4993148;28;20027;-79
2023/04/08 07:07:25;;;;;;;14.77;8.18;;;10.70;99.90;;;;;;4994497;28;20037;-80
2023/04/08 07:09:50;;;;;;;15.20;7.32;;;10.70;99.90;;;;;;4993189;28;20428;-80
2023/04/08 07:12:16;;;;;;;15.48;7.53;;;10.70;99.90;;;;;;4993712;28;20060;-80
2023/04/08 07:14:42;;;;;;;14.13;6.75;;;10.80;99.90;;;;;;4994367;28;20040;-80
2023/04/08 07:17:08;;;;;;;12.43;6.72;;;10.80;99.90;;;;;;4994146;28;20038;-81
2023/04/08 07:19:33;;;;;;;13.88;7.05;;;10.80;99.90;;;;;;4994687;28;20030;-81
2023/04/08 07:21:59;;;;;;;13.80;6.95;;;10.80;99.90;;;;;;4993927;28;20118;-81
2023/04/08 07:24:25;;;;;;;14.02;7.28;;;10.70;99.90;;;;;;4993440;28;20121;-81
2023/04/08 07:26:51;;;;;;;12.93;6.32;;;10.80;99.90;;;;;;4993922;28;20033;-82
2023/04/08 07:29:17;;;;;;;14.30;6.65;;;10.80;99.90;;;;;;4993418;28;20031;-82
2023/04/08 07:31:43;;;;;;;12.88;6.32;;;10.80;99.90;;;;;;5007092;28;20030;-80
2023/04/08 07:34:09;;;;;;;12.65;6.50;;;10.80;99.90;;;;;;5012091;28;20144;-79
2023/04/08 07:36:35;;;;;;;11.25;6.38;;;10.80;99.90;;;;;;5012790;28;20124;-80
2023/04/08 07:39:00;;;;;;;12.85;6.90;;;10.80;99.90;;;;;;5013335;28;20022;-80
2023/04/08 07:41:26;;;;;;;13.63;7.28;;;10.90;99.90;;;;;;5009659;28;20121;-80
2023/04/08 07:43:52;;;;;;;15.75;7.30;;;10.90;99.90;;;;;;4993849;28;20054;-81
2023/04/08 07:46:17;;;;;;;14.57;6.80;;;10.90;99.90;;;;;;4991722;28;20035;-80
2023/04/08 07:48:43;;;;;;;13.20;7.55;;;10.90;99.90;;;;;;5001711;28;20388;-82
2023/04/08 07:51:09;;;;;;;14.25;7.32;;;10.70;99.90;;;;;;5002273;28;20045;-79
2023/04/08 07:53:35;;;;;;;14.68;7.00;;;10.70;99.90;;;;;;5003526;28;20487;-82
2023/04/08 07:56:02;;;;;;;11.77;6.63;;;10.70;99.90;;;;;;5003081;28;20088;-80
2023/04/08 07:58:28;;;;;;;13.65;6.80;;;10.70;99.90;;;;;;5004402;28;20023;-80
2023/04/08 08:00:56;;;;;;;13.35;7.25;;;10.70;99.90;;;;;;5001497;28;20032;-81
2023/04/08 08:03:22;;;;;;;13.65;7.15;;;10.70;99.90;;;;;;5003706;28;20064;-81
2023/04/08 08:05:48;;;;;;;10.32;6.63;;;10.80;99.90;;;;;;5003891;28;20053;-80
2023/04/08 08:08:13;;;;;;;11.10;6.53;;;10.90;99.90;;;;;;5001087;28;20380;-80
2023/04/08 08:10:39;;;;;;;13.15;7.13;;;10.90;99.90;;;;;;5003747;28;20379;-80
2023/04/08 08:13:06;;;;;;;12.65;7.20;;;11.00;99.90;;;;;;5004157;28;20038;-80
2023/04/08 08:15:32;;;;;;;11.85;7.00;;;11.10;99.90;;;;;;5012696;28;20105;-81
2023/04/08 08:17:57;;;;;;;13.38;7.50;;;11.30;99.90;;;;;;5013270;28;20096;-82
2023/04/08 08:20:23;;;;;;;12.93;7.20;;;11.30;99.90;;;;;;5005033;28;20074;-81
2023/04/08 08:22:49;;;;;;;12.48;6.68;;;11.30;99.90;;;;;;5001366;28;20451;-82
2023/04/08 08:25:15;;;;;;;11.88;6.88;;;11.40;99.90;;;;;;4995646;28;20042;-81
2023/04/08 08:27:41;;;;;;;13.93;6.88;;;11.40;99.90;;;;;;5003354;28;20034;-80
2023/04/08 08:30:08;;;;;;;10.90;6.65;;;11.40;99.90;;;;;;4999681;28;20053;-83
2023/04/08 08:32:33;;;;;;;12.18;7.13;;;11.50;99.90;;;;;;4996666;28;20523;-82
2023/04/08 08:34:59;;;;;;;12.38;7.35;;;11.50;99.90;;;;;;5006209;28;20113;-79
2023/04/08 08:37:25;;;;;;;11.35;6.82;;;11.50;99.90;;;;;;4990928;28;20129;-79
2023/04/08 08:39:50;;;;;;;13.50;6.38;;;11.60;99.90;;;;;;5002869;28;20542;-76
2023/04/08 08:42:20;;;;;;;10.50;6.68;;;11.70;99.90;;;;;;5012343;28;20054;-78
2023/04/08 08:44:46;;;;;;;9.00;6.25;;;11.70;99.90;;;;;;5015078;28;20045;-78
2023/04/08 08:47:12;;;;;;;13.07;6.47;;;11.70;99.90;;;;;;5015909;28;20037;-78
2023/04/08 08:49:37;;;;;;;12.65;7.03;;;11.60;99.90;;;;;;5016255;28;20415;-79
2023/04/08 08:52:03;;;;;;;11.27;6.15;;;11.60;99.90;;;;;;5016225;28;20018;-79
2023/04/08 08:54:30;;;;;;;12.65;7.05;;;11.60;99.90;;;;;;5015181;28;20041;-79
2023/04/08 08:56:55;;;;;;;12.57;6.68;;;11.60;99.90;;;;;;5014708;28;20593;-78
2023/04/08 08:59:22;;;;;;;10.02;6.43;;;11.60;99.90;;;;;;5011174;28;20066;-78
2023/04/08 09:01:47;;;;;;;12.23;6.95;;;11.60;99.90;;;;;;5006617;28;20093;-82
2023/04/08 09:04:15;;;;;;;12.63;6.85;;;11.50;99.90;;;;;;5000885;28;20695;-84
2023/04/08 09:06:42;;;;;;;13.13;6.80;;;11.50;99.90;;;;;;5005062;28;20030;-79
2023/04/08 09:09:09;;;;;;;12.38;6.40;;;11.50;99.90;;;;;;4999958;28;20034;-77
2023/04/08 09:11:36;;;;;;;11.80;6.43;;;11.40;99.90;;;;;;4994423;28;20057;-78
2023/04/08 09:14:02;;;;;;;10.35;6.28;;;11.40;99.90;;;;;;4992930;28;20046;-78
2023/04/08 09:16:29;;;;;;;12.95;6.78;;;11.50;99.90;;;;;;4995442;28;20026;-78
2023/04/08 09:19:08;;;;;;;13.40;7.63;;;11.50;99.90;;;;;;4994545;28;20022;-77
2023/04/08 09:21:34;;;;;;;12.38;6.90;;;11.60;99.90;;;;;;4995352;28;20073;-78
2023/04/08 09:23:59;;;;;;;13.63;7.45;;;11.60;99.90;;;;;;4993201;28;20056;-77
2023/04/08 09:26:26;;;;;;;11.07;6.75;;;11.80;99.90;;;;;;4995003;28;20056;-77
2023/04/08 09:29:08;;;;;;;12.23;6.22;;;11.80;99.90;;;;;;4995340;28;20515;-78
2023/04/08 09:31:40;;;;;;;;;;;11.80;99.90;;;;;;4988183;28;20042;-78
2023/04/08 09:34:12;;;;;;;11.80;6.88;;;11.80;99.90;;;;;;4993649;28;20048;-77
2023/04/08 09:36:37;;;;;;;;;;;11.70;99.90;;;;;;4996157;28;20026;-82
2023/04/08 09:39:04;;;;;;;11.65;6.40;;;11.70;99.90;;;;;;4993999;28;19905;-79
2023/04/08 09:41:33;;;;;;;9.95;6.05;;;11.70;99.90;;;;;;4999113;28;20544;-77
2023/04/08 09:44:01;;;;;;;9.80;6.03;;;11.70;99.90;;;;;;4995799;28;20066;-77
2023/04/08 09:46:48;;;;;;;12.63;6.47;;;11.70;99.90;;;;;;4998829;28;20042;-77
2023/04/08 09:49:19;;;;;;;11.85;7.10;;;11.80;99.90;;;;;;5011923;28;20377;-77
2023/04/08 09:51:56;;;;;;;10.57;6.90;;;12.00;99.90;;;;;;4992495;28;20031;-77
2023/04/08 09:54:25;;;;;;;11.05;6.20;;;12.30;99.90;;;;;;4975938;28;20035;-77
2023/04/08 09:57:00;;;;;;;10.25;6.65;;;12.50;99.90;;;;;;4993252;28;20026;-77
2023/04/08 09:59:32;;;;;;;10.65;6.97;;;12.80;99.90;;;;;;4976064;28;20023;-77
2023/04/08 10:02:03;;;;;;;11.05;6.47;;;12.90;99.90;;;;;;4975552;28;20117;-77
2023/04/08 10:04:34;;;;;;;11.15;6.70;;;12.90;99.90;;;;;;4994840;28;20428;-79
2023/04/08 10:07:05;;;;;;;12.57;6.90;;;12.80;99.90;;;;;;4994002;28;20081;-80
2023/04/08 10:09:31;;;;;;;13.45;6.85;;;12.80;99.90;;;;;;5010834;28;20030;-78
2023/04/08 10:11:57;;;;;;;12.38;6.82;;;12.70;99.90;;;;;;5010332;28;20024;-76
2023/04/08 10:14:25;;;;;;;9.75;6.72;;;12.70;99.90;;;;;;4991375;28;20406;-76
2023/04/08 10:17:24;;;;;;;10.15;6.20;;;12.70;99.90;;;;;;4999365;28;21074;-77
2023/04/08 10:19:49;;;;;;;11.32;7.20;;;12.70;99.90;;;;;;5003693;28;20459;-77
2023/04/08 10:22:33;;;;;;;10.32;6.57;;;12.70;99.90;;;;;;5001759;28;20376;-79
2023/04/08 10:25:17;;;;;;;10.15;6.50;;;12.80;99.90;;;;;;5001088;28;20030;-79
2023/04/08 10:27:44;;;;;;;10.05;6.20;;;12.90;99.90;;;;;;5003768;28;20489;-84
2023/04/08 10:30:30;;;;;;;12.32;6.82;;;13.10;99.90;;;;;;5000470;28;20053;-76
2023/04/08 10:32:58;;;;;;;9.52;6.07;;;13.30;99.90;;;;;;4996634;28;20030;-77
2023/04/08 10:35:56;;;;;;;10.27;6.65;;;13.40;99.90;;;;;;4993097;28;20034;-77
2023/04/08 10:38:22;;;;;;;9.95;6.93;;;13.50;99.90;;;;;;4987760;28;20057;-77
2023/04/08 10:40:48;;;;;;;9.48;6.45;;;13.60;99.90;;;;;;4993930;28;20026;-76
2023/04/08 10:43:14;;;;;;;11.07;7.00;;;13.80;99.90;;;;;;4992429;28;20116;-73
2023/04/08 10:45:41;;;;;;;10.65;6.40;;;14.00;99.90;;;;;;4993079;28;20018;-73
2023/04/08 10:48:13;;;;;;;11.60;7.45;;;14.10;99.90;;;;;;4991312;28;20054;-74
2023/04/08 10:50:39;;;;;;;11.48;7.55;;;14.10;99.60;;;;;;4993046;28;20022;-73
2023/04/08 10:53:06;;;;;;;12.15;7.20;;;14.10;98.20;;;;;;4990770;28;20076;-72
2023/04/08 10:55:32;;;;;;;9.25;6.38;;;14.10;97.80;;;;;;5001981;28;20483;-73
2023/04/08 10:58:06;;;;;;;11.45;6.82;;;14.10;98.70;;;;;;4993066;28;20026;-72
2023/04/08 11:00:36;;;;;;;10.40;6.60;;;14.10;98.90;;;;;;4995936;28;20037;-72
2023/04/08 11:03:03;;;;;;;11.10;6.82;;;14.10;98.70;;;;;;4992599;28;20030;-73
2023/04/08 11:05:29;;;;;;;9.88;6.32;;;14.00;99.70;;;;;;5007692;28;20033;-73
2023/04/08 11:07:54;;;;;;;9.27;5.82;;;14.10;98.20;;;;;;5013893;28;20037;-72
2023/04/08 11:10:20;;;;;;;12.65;7.22;;;14.00;97.00;;;;;;5011373;28;20022;-73
2023/04/08 11:12:46;;;;;;;10.02;6.45;;;13.80;96.00;;;;;;5001182;28;20037;-73
2023/04/08 11:15:13;;;;;;;8.80;5.47;;;13.70;95.90;;;;;;4992769;28;20403;-72
2023/04/08 11:17:39;;;;;;;10.90;6.20;;;13.70;94.40;;;;;;5000867;28;20036;-73
2023/04/08 11:20:07;;;;;;;8.35;5.25;;;13.70;94.10;;;;;;5012714;28;20033;-72
2023/04/08 11:22:33;;;;;;;10.52;5.82;;;13.60;91.50;;;;;;5012567;28;20030;-72
2023/04/08 11:24:59;;;;;;;7.68;5.30;;;13.70;90.90;;;;;;5000036;28;20392;-73
2023/04/08 11:27:25;;;;;;;8.82;5.45;;;13.60;90.90;;;;;;4992209;28;20073;-74
2023/04/08 11:29:55;;;;;;;10.30;5.43;;;13.50;88.70;;;;;;4993363;28;20485;-73
2023/04/08 11:32:22;;;;;;;7.90;4.97;;;13.50;88.60;;;;;;4991338;28;20026;-73
2023/04/08 11:34:48;;;;;;;11.35;5.80;;;13.60;88.40;;;;;;4993036;28;20085;-72
2023/04/08 11:37:14;;;;;;;9.55;5.88;;;13.70;88.00;;;;;;5006608;28;20051;-72
2023/04/08 11:39:42;;;;;;;11.30;5.97;;;13.60;87.00;;;;;;5012482;28;20079;-72
2023/04/08 11:42:08;;;;;;;8.52;5.28;;;13.50;87.30;;;;;;5011886;28;20473;-72
2023/04/08 11:44:34;;;;;;;12.07;6.53;;;13.60;89.00;;;;;;5012629;28;20497;-72
2023/04/08 11:47:01;;;;;;;12.00;6.35;;;13.50;90.70;;;;;;5012170;28;20065;-72
2023/04/08 11:49:27;;;;;;;11.50;6.20;;;13.50;91.70;;;;;;5012721;28;20029;-73
2023/04/08 11:51:59;;;;;;;12.02;6.07;;;13.50;92.50;;;;;;5006299;28;20042;-72
2023/04/08 11:54:40;;;;;;;8.52;5.70;;;13.50;93.80;;;;;;4992680;28;20042;-72
2023/04/08 11:57:08;;;;;;;11.18;5.90;;;13.50;93.40;;;;;;4991339;28;20061;-72
2023/04/08 11:59:35;;;;;;;11.30;5.88;;;13.60;92.20;;;;;;5003169;28;20034;-72
2023/04/08 12:02:01;;;;;;;11.20;6.13;;;13.70;92.20;;;;;;5012066;28;20084;-72
2023/04/08 12:04:26;;;;;;;8.82;6.38;;;13.70;92.60;;;;;;5012673;28;20117;-75
2023/04/08 12:06:52;;;;;;;11.75;7.13;;;13.90;92.70;;;;;;5012301;28;20057;-75
2023/04/08 12:09:18;;;;;;;10.77;7.50;;;14.00;92.30;;;;;;5010669;28;20037;-76
2023/04/08 12:11:43;;;;;;;11.20;7.13;;;14.20;91.90;;;;;;5000309;28;20070;-73
2023/04/08 12:14:09;;;;;;;9.45;6.53;;;14.30;92.10;;;;;;5003979;28;20048;-73
2023/04/08 12:16:35;;;;;;;13.05;6.53;;;14.30;92.00;;;;;;4996915;28;20105;-73
2023/04/08 12:19:01;;;;;;;10.43;6.32;;;14.30;91.80;;;;;;4995789;28;20030;-72
2023/04/08 12:21:29;;;;;;;10.50;6.00;;;14.20;91.40;;;;;;5010591;28;20034;-75
2023/04/08 12:23:55;;;;;;;10.60;6.60;;;14.20;90.80;;;;;;5016241;28;20073;-74
2023/04/08 12:26:20;;;;;;;10.77;5.68;;;14.20;90.80;;;;;;5014370;28;20370;-74
2023/04/08 12:28:46;;;;;;;8.57;6.10;;;14.20;91.20;;;;;;5014641;28;20026;-73
2023/04/08 12:31:12;;;;;;;9.18;6.43;;;14.10;90.60;;;;;;5015419;28;20045;-73
2023/04/08 12:33:37;;;;;;;10.07;6.28;;;14.10;91.00;;;;;;5014732;28;20391;-73
2023/04/08 12:36:03;;;;;;;9.95;6.00;;;14.00;90.90;;;;;;5013854;28;20041;-73
2023/04/08 12:38:29;;;;;;;8.82;6.22;;;13.90;88.70;;;;;;5014523;28;20026;-74
2023/04/08 12:40:55;;;;;;;11.82;5.95;;;13.90;89.80;;;;;;5015827;28;20030;-73